Terminal Aerodrome Forecast
Issued by NWS

Home | Current Version | Previous Version | Text Only | Print | Product List | Glossary On
Versions: 1 2 3 4 5 6 7 8 9 10 11 12 13 14 15 16 17 18 19 20 21 22 23 24 25 26 27 28 29 30 31 32 33 34 35 36 37 38 39 40 41 42
346
FTUS43 KDDC 240929 AAA
TAFGCK
TAF AMD
KGCK 240929Z 2409/2506 20012KT P6SM SKC
     FM241200 11010KT P6SM OVC008
     FM241500 14014G23KT P6SM BKN015
     FM241800 20016G24KT P6SM SCT040
     FM250100 17017G24KT P6SM FEW200=

USA.gov is the U.S. government's official web portal to all federal, state and local government web resources and services.